Time;durP1;ratioP1;P1;durP2;ratioP2;P2;SDS_P1;SDS_P2;PMS_P1;PMS_P2;Temp;Humidity;BMP_temperature;BMP_pressure;BME280_temperature;BME280_humidity;BME280_pressure;Samples;Min_cycle;Max_cycle;Signal;HPM_P1;HPM_P2
2020/12/29 00:06:45;;;;;;;3.67;0.82;;;-1.00;99.90;;;;;;20829919;28;20053;-62
2020/12/29 00:16:48;;;;;;;1.05;0.40;;;-1.30;99.90;;;;;;20830899;28;20049;-61
2020/12/29 00:26:51;;;;;;;0.80;0.40;;;-1.30;99.90;;;;;;20829815;28;20450;-61
2020/12/29 00:36:53;;;;;;;1.23;0.45;;;-0.90;99.90;;;;;;20828595;28;20045;-61
2020/12/29 00:46:55;;;;;;;4.38;0.50;;;-0.80;99.90;;;;;;20843281;28;20518;-61
2020/12/29 00:56:59;;;;;;;1.50;0.70;;;-0.40;99.90;;;;;;20825628;28;20091;-61
2020/12/29 01:07:03;;;;;;;1.40;0.50;;;-0.20;99.90;;;;;;20825020;28;20485;-61
2020/12/29 01:17:06;;;;;;;2.70;0.75;;;-0.10;99.90;;;;;;20825253;28;20087;-61
2020/12/29 01:27:08;;;;;;;3.55;0.60;;;-0.10;99.90;;;;;;20965292;28;20090;-61
2020/12/29 01:37:10;;;;;;;3.92;0.65;;;0.00;99.90;;;;;;20990501;28;20040;-61
2020/12/29 01:47:12;;;;;;;2.35;0.50;;;0.10;99.90;;;;;;20990979;28;20040;-62
2020/12/29 01:57:14;;;;;;;3.90;0.63;;;0.20;99.90;;;;;;20994671;28;20048;-62
2020/12/29 02:07:18;;;;;;;1.42;0.30;;;0.00;99.90;;;;;;20987132;28;20078;-62
2020/12/29 02:17:20;;;;;;;3.25;0.40;;;-0.20;99.90;;;;;;21005121;28;20118;-63
2020/12/29 02:27:25;;;;;;;2.45;0.40;;;0.00;99.90;;;;;;21004064;28;20037;-61
2020/12/29 02:37:27;;;;;;;2.35;0.20;;;0.00;99.90;;;;;;21003852;28;20040;-61
2020/12/29 02:47:30;;;;;;;1.70;0.30;;;0.30;99.90;;;;;;21002454;28;20036;-61
2020/12/29 02:57:31;;;;;;;3.05;0.45;;;0.30;99.90;;;;;;20984127;28;20056;-62
2020/12/29 03:07:34;;;;;;;2.63;0.25;;;0.30;99.90;;;;;;20989832;28;20057;-62
2020/12/29 03:17:36;;;;;;;1.45;0.30;;;0.40;99.90;;;;;;20898938;28;20056;-62
2020/12/29 03:27:38;;;;;;;1.35;0.32;;;0.30;99.90;;;;;;20899125;28;20033;-62
2020/12/29 03:37:39;;;;;;;3.28;0.47;;;0.30;99.90;;;;;;20915904;28;20103;-61
2020/12/29 03:47:41;;;;;;;3.20;0.60;;;0.20;99.90;;;;;;20915173;28;20041;-62
2020/12/29 03:57:43;;;;;;;5.03;0.55;;;0.30;99.90;;;;;;20896614;28;20041;-62
2020/12/29 04:07:45;;;;;;;2.50;0.30;;;0.40;99.90;;;;;;20926759;28;20078;-62
2020/12/29 04:17:47;;;;;;;2.40;0.30;;;0.20;99.90;;;;;;20977560;28;20042;-61
2020/12/29 04:27:49;;;;;;;4.65;0.50;;;0.20;99.90;;;;;;20994643;28;20083;-62
2020/12/29 04:37:50;;;;;;;1.45;0.30;;;0.10;99.90;;;;;;20962968;28;20037;-62
2020/12/29 04:47:55;;;;;;;1.95;0.30;;;0.00;99.90;;;;;;20910620;28;20059;-63
2020/12/29 04:57:59;;;;;;;2.97;0.38;;;-0.20;99.90;;;;;;20910144;28;20099;-64
2020/12/29 05:08:01;;;;;;;1.85;0.60;;;0.00;99.90;;;;;;20891069;28;20053;-62
2020/12/29 05:18:03;;;;;;;3.33;0.40;;;-0.10;99.90;;;;;;20890877;28;20045;-62
2020/12/29 05:28:06;;;;;;;2.35;0.50;;;-0.20;99.90;;;;;;20981873;28;20034;-62
2020/12/29 05:38:08;;;;;;;3.22;0.60;;;-0.30;99.90;;;;;;20972834;28;20048;-62
2020/12/29 05:48:10;;;;;;;2.83;0.80;;;-0.40;99.90;;;;;;20990342;28;20040;-62
2020/12/29 05:58:12;;;;;;;4.43;1.05;;;-0.50;99.90;;;;;;20972709;28;20059;-62
2020/12/29 06:08:16;;;;;;;1.83;0.85;;;-0.60;99.90;;;;;;20989048;28;20053;-62
2020/12/29 06:18:36;;;;;;;6.85;1.10;;;-0.60;99.90;;;;;;20971126;28;20048;-62
2020/12/29 06:28:46;;;;;;;1.80;0.70;;;-0.60;99.90;;;;;;20988511;28;20098;-62
2020/12/29 06:38:51;;;;;;;2.97;0.70;;;-0.60;99.90;;;;;;20988265;28;20402;-62
2020/12/29 06:48:57;;;;;;;4.55;1.00;;;-0.60;99.90;;;;;;20982002;28;20044;-62
2020/12/29 06:58:58;;;;;;;2.25;0.60;;;-0.60;99.90;;;;;;21002005;28;20048;-62
2020/12/29 07:09:15;;;;;;;2.55;0.70;;;-0.40;99.90;;;;;;20977509;28;20392;-62
2020/12/29 07:19:23;;;;;;;3.55;0.55;;;-0.40;99.90;;;;;;20918126;28;20033;-62
2020/12/29 07:29:25;;;;;;;5.22;0.85;;;-0.40;99.90;;;;;;20915806;28;20479;-62
2020/12/29 07:39:27;;;;;;;2.78;0.57;;;-0.30;99.90;;;;;;20915385;28;20468;-62
2020/12/29 07:49:29;;;;;;;3.85;0.50;;;-0.10;99.90;;;;;;20915484;28;20041;-62
2020/12/29 07:59:31;;;;;;;5.65;0.98;;;0.00;99.90;;;;;;20913107;28;20142;-63
2020/12/29 08:09:48;;;;;;;3.70;0.50;;;0.10;99.90;;;;;;20941144;28;20156;-62
2020/12/29 08:20:00;;;;;;;3.75;0.68;;;0.30;99.90;;;;;;20995878;28;20036;-61
2020/12/29 08:30:04;;;;;;;3.53;0.52;;;0.70;99.90;;;;;;20995304;28;20048;-62
2020/12/29 08:40:20;;;;;;;2.85;0.55;;;1.00;99.90;;;;;;20962986;28;20070;-62
2020/12/29 08:50:31;;;;;;;2.63;0.40;;;1.10;99.90;;;;;;20911353;28;20102;-62
2020/12/29 09:00:44;;;;;;;3.55;0.80;;;1.20;99.90;;;;;;20890899;28;20041;-62
2020/12/29 09:10:46;;;;;;;3.63;0.68;;;1.20;99.90;;;;;;20909059;28;20053;-61
2020/12/29 09:20:48;;;;;;;5.10;0.70;;;1.30;99.90;;;;;;20908421;28;20029;-62
2020/12/29 09:31:00;;;;;;;2.20;0.52;;;1.10;99.90;;;;;;20907463;28;20049;-62
2020/12/29 09:41:03;;;;;;;7.70;0.50;;;1.70;99.90;;;;;;20907903;28;20400;-62
2020/12/29 09:51:06;;;;;;;1.30;0.60;;;2.50;99.90;;;;;;20920909;28;20113;-61
2020/12/29 10:01:07;;;;;;;2.78;0.43;;;2.80;99.90;;;;;;20989839;28;20047;-60
2020/12/29 10:11:12;;;;;;;3.88;0.40;;;3.10;99.90;;;;;;20988724;28;20052;-62
2020/12/29 10:21:15;;;;;;;2.58;0.55;;;3.50;99.90;;;;;;20998145;28;20025;-64
2020/12/29 10:31:17;;;;;;;2.55;0.47;;;5.50;99.90;;;;;;21004265;28;20372;-63
2020/12/29 10:41:19;;;;;;;3.13;0.40;;;7.20;99.90;;;;;;21003447;28;20086;-64
2020/12/29 10:51:23;;;;;;;1.55;0.60;;;8.70;99.90;;;;;;21002511;28;20041;-64
2020/12/29 11:01:25;;;;;;;2.45;1.02;;;8.60;99.90;;;;;;20983443;28;20033;-64
2020/12/29 11:11:27;;;;;;;1.70;0.63;;;7.50;99.90;;;;;;20957158;28;20458;-63
2020/12/29 11:21:29;;;;;;;3.58;0.63;;;6.00;99.90;;;;;;20917369;28;20084;-63
2020/12/29 11:31:30;;;;;;;4.88;0.98;;;5.20;99.90;;;;;;20915878;28;20048;-62
2020/12/29 11:41:32;;;;;;;5.85;1.58;;;4.70;99.90;;;;;;20915863;28;20395;-63
2020/12/29 11:51:34;;;;;;;3.00;1.10;;;4.20;99.90;;;;;;20914929;28;20053;-63
2020/12/29 12:02:09;;;;;;;2.58;0.70;;;3.90;99.90;;;;;;21049244;22;20080;31
2020/12/29 12:12:10;;;;;;;1.92;0.70;;;3.90;99.90;;;;;;20860868;28;20398;-63
2020/12/29 12:22:12;;;;;;;3.22;0.90;;;3.70;99.90;;;;;;20911754;28;20028;-62
2020/12/29 12:32:14;;;;;;;4.20;1.00;;;3.90;99.90;;;;;;20911948;28;20445;-61
2020/12/29 12:42:20;;;;;;;156.13;6.05;;;3.50;99.90;;;;;;20862198;28;20095;-62
2020/12/29 12:52:21;;;;;;;298.02;10.25;;;3.20;99.90;;;;;;20828665;28;20479;-61
2020/12/29 13:02:23;;;;;;;37.53;1.30;;;2.70;99.90;;;;;;20829646;28;20045;-61
2020/12/29 13:12:26;;;;;;;231.88;7.53;;;2.40;99.90;;;;;;20877916;28;20037;-61
2020/12/29 13:22:28;;;;;;;277.45;7.68;;;2.50;99.90;;;;;;20908629;28;20041;-61
2020/12/29 13:32:30;;;;;;;121.07;3.45;;;2.50;99.90;;;;;;20908104;28;20049;-61
2020/12/29 13:42:32;;;;;;;0.00;0.00;;;2.50;99.90;;;;;;20908641;28;20029;-62
2020/12/29 13:52:34;;;;;;;98.40;2.65;;;2.50;99.90;;;;;;20893640;28;20041;-63
2020/12/29 14:02:37;;;;;;;0.00;0.00;;;2.10;99.90;;;;;;20923964;28;20049;-61
2020/12/29 14:12:40;;;;;;;0.20;0.10;;;1.50;99.90;;;;;;20975377;28;20087;-61
2020/12/29 14:22:42;;;;;;;2.67;0.05;;;1.20;99.90;;;;;;20949184;28;20045;-60
2020/12/29 14:32:46;;;;;;;120.28;3.38;;;1.10;99.90;;;;;;20921542;28;20395;-60
2020/12/29 14:42:48;;;;;;;153.18;3.80;;;1.00;99.90;;;;;;20920913;28;20064;-61
2020/12/29 14:52:50;;;;;;;133.60;4.32;;;0.80;99.90;;;;;;20919761;28;20036;-61
2020/12/29 15:02:52;;;;;;;180.90;4.65;;;0.70;99.90;;;;;;20918902;28;20165;-59
2020/12/29 15:12:54;;;;;;;215.60;5.72;;;0.60;99.90;;;;;;20918317;28;20098;-60
2020/12/29 15:22:57;;;;;;;94.90;3.47;;;0.70;99.90;;;;;;20918004;28;20037;-59
2020/12/29 15:33:00;;;;;;;279.17;7.70;;;0.60;99.90;;;;;;20917012;28;20037;-60
2020/12/29 15:43:03;;;;;;;387.63;11.38;;;0.60;99.90;;;;;;20916651;28;20394;-60
2020/12/29 15:53:06;;;;;;;302.90;8.93;;;0.50;99.90;;;;;;20896749;28;20045;-61
2020/12/29 16:03:08;;;;;;;718.85;23.73;;;0.40;99.90;;;;;;20913338;28;20057;-59
2020/12/29 16:13:10;;;;;;;687.15;22.20;;;0.30;99.90;;;;;;20952294;28;20040;-60
2020/12/29 16:23:12;;;;;;;762.92;23.73;;;0.20;99.90;;;;;;20978764;28;20036;-60
2020/12/29 16:33:14;;;;;;;827.33;24.33;;;0.30;99.90;;;;;;20987538;28;20098;-59
2020/12/29 16:43:17;;;;;;;1245.68;39.17;;;0.20;99.90;;;;;;20938846;28;20487;-60
2020/12/29 16:53:19;;;;;;;810.25;27.60;;;0.30;99.90;;;;;;20901781;28;20075;-60
2020/12/29 17:03:22;;;;;;;630.42;20.38;;;0.30;99.90;;;;;;20881437;28;20053;-60
2020/12/29 17:13:24;;;;;;;386.23;13.05;;;0.30;99.90;;;;;;20867862;28;20041;-60
2020/12/29 17:23:27;;;;;;;673.35;20.65;;;0.30;99.90;;;;;;20890835;28;20033;-60
2020/12/29 17:33:29;;;;;;;709.08;21.15;;;0.30;99.90;;;;;;20908649;28;20049;-60
2020/12/29 17:43:31;;;;;;;698.25;20.52;;;0.30;99.90;;;;;;20907662;28;20037;-60
2020/12/29 17:53:33;;;;;;;446.33;14.00;;;0.30;99.90;;;;;;20907091;28;20087;-60
2020/12/29 18:03:35;;;;;;;556.35;21.10;;;0.20;99.90;;;;;;20906431;28;20056;-60
2020/12/29 18:13:38;;;;;;;1137.93;39.35;;;0.30;99.90;;;;;;20966691;28;20110;-60
2020/12/29 18:23:42;;;;;;;704.97;23.55;;;0.30;99.90;;;;;;20989808;28;20094;-60
2020/12/29 18:33:46;;;;;;;574.30;17.70;;;0.30;99.90;;;;;;20989586;28;20067;-60
2020/12/29 18:43:48;;;;;;;479.73;13.02;;;0.20;99.90;;;;;;20999952;28;20379;-59
2020/12/29 18:53:50;;;;;;;278.23;8.48;;;0.20;99.90;;;;;;20939829;28;20398;-60
2020/12/29 19:03:52;;;;;;;447.02;14.23;;;0.20;99.90;;;;;;20919001;28;20053;-59
2020/12/29 19:13:55;;;;;;;20.35;3.25;;;0.20;99.90;;;;;;20854827;28;20100;-60
2020/12/29 19:24:01;;;;;;;246.82;6.97;;;0.20;99.90;;;;;;20835461;28;20033;-60
2020/12/29 19:34:03;;;;;;;365.73;9.88;;;0.30;99.90;;;;;;20834456;28;20033;-60
2020/12/29 19:44:05;;;;;;;348.23;9.77;;;0.30;99.90;;;;;;20833748;28;20063;-60
2020/12/29 19:54:07;;;;;;;134.02;4.40;;;0.20;99.90;;;;;;20832643;28;20045;-59
2020/12/29 20:04:10;;;;;;;90.50;2.53;;;0.20;99.90;;;;;;20848843;28;20060;-60
2020/12/29 20:14:12;;;;;;;96.18;3.83;;;0.10;99.90;;;;;;20913141;28;20053;-60
2020/12/29 20:24:18;;;;;;;0.98;0.60;;;0.10;99.90;;;;;;20912239;28;20033;-60
2020/12/29 20:34:21;;;;;;;2.63;1.20;;;0.10;99.90;;;;;;20911669;28;20388;-59
2020/12/29 20:44:26;;;;;;;1.13;0.50;;;0.10;99.90;;;;;;20847737;28;20037;-60
2020/12/29 20:54:29;;;;;;;0.93;0.50;;;0.10;99.90;;;;;;20828025;28;20395;-59
2020/12/29 21:04:32;;;;;;;1.10;0.50;;;-0.10;99.90;;;;;;20828676;28;20057;-60
2020/12/29 21:14:35;;;;;;;1.00;0.40;;;-0.30;99.90;;;;;;20837929;28;20108;-61
2020/12/29 21:24:43;;;;;;;1.10;0.30;;;-0.50;99.90;;;;;;20826481;28;20073;-60
2020/12/29 21:34:46;;;;;;;0.38;0.30;;;-0.50;99.90;;;;;;20776411;28;20045;-60
2020/12/29 21:44:49;;;;;;;0.68;0.30;;;-0.50;99.90;;;;;;20825602;28;20306;-60
2020/12/29 21:54:55;;;;;;;0.25;0.20;;;-0.60;99.90;;;;;;20807134;28;20037;-60
2020/12/29 22:04:58;;;;;;;0.40;0.20;;;-1.20;99.90;;;;;;20829803;28;20048;-60
2020/12/29 22:15:01;;;;;;;0.50;0.28;;;-1.70;99.90;;;;;;20911539;28;20064;-61
2020/12/29 22:25:03;;;;;;;0.95;0.30;;;-1.60;99.90;;;;;;20906020;28;20029;-60
2020/12/29 22:35:05;;;;;;;1.30;0.30;;;-1.40;99.90;;;;;;20903546;28;20049;-60
2020/12/29 22:45:09;;;;;;;1.02;0.30;;;-1.10;99.90;;;;;;20903059;28;20471;-60
2020/12/29 22:55:12;;;;;;;1.52;0.55;;;-1.00;99.90;;;;;;20919205;28;20099;-60
2020/12/29 23:05:14;;;;;;;3.67;0.30;;;-1.00;99.90;;;;;;20918889;28;20052;-60
2020/12/29 23:15:16;;;;;;;0.68;0.22;;;-0.80;99.90;;;;;;20914201;28;20041;-60
2020/12/29 23:25:18;;;;;;;2.13;0.70;;;-0.70;99.90;;;;;;20834785;28;20092;-60
2020/12/29 23:35:21;;;;;;;5.32;0.52;;;-0.60;99.90;;;;;;20816867;28;20042;-61
2020/12/29 23:45:23;;;;;;;1.33;0.20;;;-0.70;99.90;;;;;;20799875;28;20041;-60
2020/12/29 23:55:29;;;;;;;0.50;0.22;;;-0.80;99.90;;;;;;20832240;28;20207;-60
